sensor_id;sensor_type;location;lat;lon;timestamp;P1;durP1;ratioP1;P2;durP2;ratioP2
50853;SDS011;44154;45.506;-122.806;2022-10-20T00:00:53;7.53;;;4.78;;
50853;SDS011;44154;45.506;-122.806;2022-10-20T00:03:20;6.93;;;4.85;;
50853;SDS011;44154;45.506;-122.806;2022-10-20T00:05:46;7.53;;;4.97;;
50853;SDS011;44154;45.506;-122.806;2022-10-20T00:08:12;8.02;;;4.80;;
50853;SDS011;44154;45.506;-122.806;2022-10-20T00:10:38;6.90;;;4.80;;
50853;SDS011;44154;45.506;-122.806;2022-10-20T00:13:05;6.88;;;4.57;;
50853;SDS011;44154;45.506;-122.806;2022-10-20T00:15:31;7.88;;;4.75;;
50853;SDS011;44154;45.506;-122.806;2022-10-20T00:17:57;7.55;;;4.22;;
50853;SDS011;44154;45.506;-122.806;2022-10-20T00:20:24;9.95;;;4.38;;
50853;SDS011;44154;45.506;-122.806;2022-10-20T00:22:50;9.20;;;4.20;;
50853;SDS011;44154;45.506;-122.806;2022-10-20T00:25:16;6.28;;;4.22;;
50853;SDS011;44154;45.506;-122.806;2022-10-20T00:27:42;5.60;;;4.15;;
50853;SDS011;44154;45.506;-122.806;2022-10-20T00:30:08;6.15;;;4.40;;
50853;SDS011;44154;45.506;-122.806;2022-10-20T00:32:35;5.05;;;3.85;;
50853;SDS011;44154;45.506;-122.806;2022-10-20T00:35:01;5.22;;;3.88;;
50853;SDS011;44154;45.506;-122.806;2022-10-20T00:37:27;5.53;;;4.00;;
50853;SDS011;44154;45.506;-122.806;2022-10-20T00:39:53;6.22;;;3.85;;
50853;SDS011;44154;45.506;-122.806;2022-10-20T00:42:20;6.28;;;3.83;;
50853;SDS011;44154;45.506;-122.806;2022-10-20T00:44:48;6.13;;;4.20;;
50853;SDS011;44154;45.506;-122.806;2022-10-20T00:50:33;10.18;;;6.90;;
50853;SDS011;44154;45.506;-122.806;2022-10-20T00:52:56;13.10;;;6.75;;
50853;SDS011;44154;45.506;-122.806;2022-10-20T00:55:27;9.98;;;5.60;;
50853;SDS011;44154;45.506;-122.806;2022-10-20T00:57:56;8.07;;;5.57;;
50853;SDS011;44154;45.506;-122.806;2022-10-20T01:00:24;6.90;;;5.00;;
50853;SDS011;44154;45.506;-122.806;2022-10-20T01:02:52;6.65;;;4.97;;
50853;SDS011;44154;45.506;-122.806;2022-10-20T01:05:21;6.35;;;4.55;;
50853;SDS011;44154;45.506;-122.806;2022-10-20T01:07:48;5.45;;;4.20;;
50853;SDS011;44154;45.506;-122.806;2022-10-20T01:10:14;6.65;;;4.72;;
50853;SDS011;44154;45.506;-122.806;2022-10-20T01:21:04;5.07;;;4.03;;
50853;SDS011;44154;45.506;-122.806;2022-10-20T01:24:19;4.53;;;3.72;;
50853;SDS011;44154;45.506;-122.806;2022-10-20T01:29:48;6.45;;;4.55;;
50853;SDS011;44154;45.506;-122.806;2022-10-20T01:32:23;6.45;;;4.80;;
50853;SDS011;44154;45.506;-122.806;2022-10-20T01:38:10;6.43;;;4.72;;
50853;SDS011;44154;45.506;-122.806;2022-10-20T01:43:00;10.32;;;6.40;;
50853;SDS011;44154;45.506;-122.806;2022-10-20T01:45:31;10.25;;;6.55;;
50853;SDS011;44154;45.506;-122.806;2022-10-20T01:48:00;10.68;;;7.30;;
50853;SDS011;44154;45.506;-122.806;2022-10-20T01:50:29;9.68;;;6.70;;
50853;SDS011;44154;45.506;-122.806;2022-10-20T01:52:57;7.88;;;5.90;;
50853;SDS011;44154;45.506;-122.806;2022-10-20T01:55:23;7.65;;;5.90;;
50853;SDS011;44154;45.506;-122.806;2022-10-20T02:00:31;7.18;;;5.30;;
50853;SDS011;44154;45.506;-122.806;2022-10-20T02:09:06;8.48;;;6.07;;
50853;SDS011;44154;45.506;-122.806;2022-10-20T02:11:52;7.65;;;5.80;;
50853;SDS011;44154;45.506;-122.806;2022-10-20T02:14:32;6.85;;;5.45;;
50853;SDS011;44154;45.506;-122.806;2022-10-20T02:17:04;8.40;;;4.80;;
50853;SDS011;44154;45.506;-122.806;2022-10-20T02:22:00;7.03;;;4.85;;
50853;SDS011;44154;45.506;-122.806;2022-10-20T02:24:34;7.13;;;5.00;;
50853;SDS011;44154;45.506;-122.806;2022-10-20T02:27:13;7.68;;;4.72;;
50853;SDS011;44154;45.506;-122.806;2022-10-20T02:29:43;7.70;;;5.47;;
50853;SDS011;44154;45.506;-122.806;2022-10-20T02:32:17;8.43;;;5.40;;
50853;SDS011;44154;45.506;-122.806;2022-10-20T02:34:43;8.82;;;5.25;;
50853;SDS011;44154;45.506;-122.806;2022-10-20T02:37:09;8.20;;;5.68;;
50853;SDS011;44154;45.506;-122.806;2022-10-20T02:39:36;8.18;;;5.57;;
50853;SDS011;44154;45.506;-122.806;2022-10-20T02:42:02;7.35;;;5.20;;
50853;SDS011;44154;45.506;-122.806;2022-10-20T02:44:28;7.55;;;5.30;;
50853;SDS011;44154;45.506;-122.806;2022-10-20T02:46:54;6.53;;;4.97;;
50853;SDS011;44154;45.506;-122.806;2022-10-20T02:49:20;6.75;;;5.25;;
50853;SDS011;44154;45.506;-122.806;2022-10-20T02:51:47;7.28;;;5.40;;
50853;SDS011;44154;45.506;-122.806;2022-10-20T02:54:13;6.70;;;5.35;;
50853;SDS011;44154;45.506;-122.806;2022-10-20T02:56:39;7.50;;;5.60;;
50853;SDS011;44154;45.506;-122.806;2022-10-20T02:59:05;7.80;;;5.10;;
50853;SDS011;44154;45.506;-122.806;2022-10-20T03:01:41;6.13;;;4.70;;
50853;SDS011;44154;45.506;-122.806;2022-10-20T03:04:07;6.50;;;4.50;;
50853;SDS011;44154;45.506;-122.806;2022-10-20T03:06:34;6.50;;;4.85;;
50853;SDS011;44154;45.506;-122.806;2022-10-20T03:09:00;7.18;;;4.70;;
50853;SDS011;44154;45.506;-122.806;2022-10-20T03:11:26;6.75;;;4.80;;
50853;SDS011;44154;45.506;-122.806;2022-10-20T03:13:52;11.00;;;5.95;;
50853;SDS011;44154;45.506;-122.806;2022-10-20T03:16:19;8.57;;;5.82;;
50853;SDS011;44154;45.506;-122.806;2022-10-20T03:18:45;8.07;;;5.72;;
50853;SDS011;44154;45.506;-122.806;2022-10-20T03:21:11;7.38;;;5.60;;
50853;SDS011;44154;45.506;-122.806;2022-10-20T03:23:37;9.30;;;6.43;;
50853;SDS011;44154;45.506;-122.806;2022-10-20T03:26:04;8.68;;;6.70;;
50853;SDS011;44154;45.506;-122.806;2022-10-20T03:28:32;9.30;;;6.75;;
50853;SDS011;44154;45.506;-122.806;2022-10-20T03:30:58;8.68;;;6.57;;
50853;SDS011;44154;45.506;-122.806;2022-10-20T03:33:25;10.57;;;7.80;;
50853;SDS011;44154;45.506;-122.806;2022-10-20T03:35:51;10.68;;;7.78;;
50853;SDS011;44154;45.506;-122.806;2022-10-20T03:38:17;10.90;;;7.45;;
50853;SDS011;44154;45.506;-122.806;2022-10-20T03:40:44;9.48;;;7.15;;
50853;SDS011;44154;45.506;-122.806;2022-10-20T03:43:10;8.70;;;6.93;;
50853;SDS011;44154;45.506;-122.806;2022-10-20T03:45:36;9.35;;;7.18;;
50853;SDS011;44154;45.506;-122.806;2022-10-20T03:48:02;8.82;;;7.05;;
50853;SDS011;44154;45.506;-122.806;2022-10-20T03:50:29;8.85;;;6.65;;
50853;SDS011;44154;45.506;-122.806;2022-10-20T03:52:55;9.35;;;6.88;;
50853;SDS011;44154;45.506;-122.806;2022-10-20T03:55:21;8.60;;;6.53;;
50853;SDS011;44154;45.506;-122.806;2022-10-20T03:57:47;8.85;;;7.05;;
50853;SDS011;44154;45.506;-122.806;2022-10-20T04:00:13;9.60;;;7.00;;
50853;SDS011;44154;45.506;-122.806;2022-10-20T04:02:41;9.23;;;6.97;;
50853;SDS011;44154;45.506;-122.806;2022-10-20T04:05:13;17.20;;;13.15;;
50853;SDS011;44154;45.506;-122.806;2022-10-20T04:07:41;11.45;;;8.85;;
50853;SDS011;44154;45.506;-122.806;2022-10-20T04:10:08;9.68;;;7.35;;
50853;SDS011;44154;45.506;-122.806;2022-10-20T04:12:37;10.20;;;7.70;;
50853;SDS011;44154;45.506;-122.806;2022-10-20T04:15:04;10.75;;;8.20;;
50853;SDS011;44154;45.506;-122.806;2022-10-20T04:17:31;9.80;;;7.82;;
50853;SDS011;44154;45.506;-122.806;2022-10-20T04:19:57;8.63;;;7.18;;
50853;SDS011;44154;45.506;-122.806;2022-10-20T04:22:23;9.90;;;7.55;;
50853;SDS011;44154;45.506;-122.806;2022-10-20T04:24:49;8.65;;;6.88;;
50853;SDS011;44154;45.506;-122.806;2022-10-20T04:27:15;10.48;;;8.05;;
50853;SDS011;44154;45.506;-122.806;2022-10-20T04:29:42;10.25;;;7.95;;
50853;SDS011;44154;45.506;-122.806;2022-10-20T04:32:08;10.20;;;7.65;;
50853;SDS011;44154;45.506;-122.806;2022-10-20T04:34:34;10.10;;;7.55;;
50853;SDS011;44154;45.506;-122.806;2022-10-20T04:37:00;9.82;;;7.50;;
50853;SDS011;44154;45.506;-122.806;2022-10-20T04:39:27;9.80;;;7.60;;
50853;SDS011;44154;45.506;-122.806;2022-10-20T04:41:53;10.93;;;7.60;;
50853;SDS011;44154;45.506;-122.806;2022-10-20T04:44:19;10.23;;;7.82;;
50853;SDS011;44154;45.506;-122.806;2022-10-20T04:46:45;10.63;;;8.30;;
50853;SDS011;44154;45.506;-122.806;2022-10-20T04:49:11;9.60;;;7.70;;
50853;SDS011;44154;45.506;-122.806;2022-10-20T04:51:37;11.82;;;8.70;;
50853;SDS011;44154;45.506;-122.806;2022-10-20T04:54:03;9.65;;;7.93;;
50853;SDS011;44154;45.506;-122.806;2022-10-20T04:56:30;10.63;;;8.10;;
50853;SDS011;44154;45.506;-122.806;2022-10-20T04:58:56;10.13;;;8.10;;
50853;SDS011;44154;45.506;-122.806;2022-10-20T05:01:25;11.80;;;9.23;;
50853;SDS011;44154;45.506;-122.806;2022-10-20T05:03:53;11.50;;;9.00;;
50853;SDS011;44154;45.506;-122.806;2022-10-20T05:06:21;10.00;;;8.35;;
50853;SDS011;44154;45.506;-122.806;2022-10-20T05:08:53;11.95;;;8.55;;
50853;SDS011;44154;45.506;-122.806;2022-10-20T05:11:24;13.27;;;10.05;;
50853;SDS011;44154;45.506;-122.806;2022-10-20T05:13:52;13.45;;;10.95;;
50853;SDS011;44154;45.506;-122.806;2022-10-20T05:16:18;16.35;;;11.82;;
50853;SDS011;44154;45.506;-122.806;2022-10-20T05:18:45;16.95;;;12.82;;
50853;SDS011;44154;45.506;-122.806;2022-10-20T05:21:16;16.15;;;12.52;;
50853;SDS011;44154;45.506;-122.806;2022-10-20T05:23:45;17.38;;;14.35;;
50853;SDS011;44154;45.506;-122.806;2022-10-20T05:26:13;17.05;;;13.23;;
50853;SDS011;44154;45.506;-122.806;2022-10-20T05:28:44;19.60;;;14.85;;
50853;SDS011;44154;45.506;-122.806;2022-10-20T05:31:11;17.27;;;13.50;;
50853;SDS011;44154;45.506;-122.806;2022-10-20T05:33:42;16.65;;;13.00;;
50853;SDS011;44154;45.506;-122.806;2022-10-20T05:36:11;16.40;;;12.85;;
50853;SDS011;44154;45.506;-122.806;2022-10-20T05:38:39;15.30;;;11.98;;
50853;SDS011;44154;45.506;-122.806;2022-10-20T05:41:09;15.25;;;12.60;;
50853;SDS011;44154;45.506;-122.806;2022-10-20T05:43:37;15.10;;;11.90;;
50853;SDS011;44154;45.506;-122.806;2022-10-20T05:46:04;13.75;;;11.10;;
50853;SDS011;44154;45.506;-122.806;2022-10-20T05:48:31;14.85;;;11.90;;
50853;SDS011;44154;45.506;-122.806;2022-10-20T05:51:07;14.90;;;11.43;;
50853;SDS011;44154;45.506;-122.806;2022-10-20T05:53:35;13.77;;;10.98;;
50853;SDS011;44154;45.506;-122.806;2022-10-20T05:56:05;14.00;;;11.05;;
50853;SDS011;44154;45.506;-122.806;2022-10-20T05:58:32;14.48;;;10.82;;
50853;SDS011;44154;45.506;-122.806;2022-10-20T06:01:09;13.38;;;10.77;;
50853;SDS011;44154;45.506;-122.806;2022-10-20T06:06:35;16.58;;;13.07;;
50853;SDS011;44154;45.506;-122.806;2022-10-20T06:09:05;14.77;;;11.02;;
50853;SDS011;44154;45.506;-122.806;2022-10-20T06:11:33;13.35;;;11.50;;
50853;SDS011;44154;45.506;-122.806;2022-10-20T06:14:00;14.40;;;11.95;;
50853;SDS011;44154;45.506;-122.806;2022-10-20T06:16:26;14.10;;;11.48;;
50853;SDS011;44154;45.506;-122.806;2022-10-20T06:18:53;13.90;;;11.05;;
50853;SDS011;44154;45.506;-122.806;2022-10-20T06:21:23;14.55;;;11.50;;
50853;SDS011;44154;45.506;-122.806;2022-10-20T06:23:51;15.07;;;11.52;;
50853;SDS011;44154;45.506;-122.806;2022-10-20T06:26:22;14.85;;;11.65;;
50853;SDS011;44154;45.506;-122.806;2022-10-20T06:28:51;14.20;;;11.45;;
50853;SDS011;44154;45.506;-122.806;2022-10-20T06:31:20;14.73;;;11.38;;
50853;SDS011;44154;45.506;-122.806;2022-10-20T06:33:48;14.95;;;11.88;;
50853;SDS011;44154;45.506;-122.806;2022-10-20T06:36:15;14.10;;;11.90;;
50853;SDS011;44154;45.506;-122.806;2022-10-20T06:38:42;15.20;;;12.00;;
50853;SDS011;44154;45.506;-122.806;2022-10-20T06:41:11;14.73;;;12.13;;
50853;SDS011;44154;45.506;-122.806;2022-10-20T06:43:39;14.07;;;10.95;;
50853;SDS011;44154;45.506;-122.806;2022-10-20T06:46:07;15.35;;;12.65;;
50853;SDS011;44154;45.506;-122.806;2022-10-20T06:48:36;15.48;;;12.57;;
50853;SDS011;44154;45.506;-122.806;2022-10-20T06:51:03;15.82;;;11.75;;
50853;SDS011;44154;45.506;-122.806;2022-10-20T06:53:32;15.68;;;12.20;;
50853;SDS011;44154;45.506;-122.806;2022-10-20T06:56:01;14.40;;;11.70;;
50853;SDS011;44154;45.506;-122.806;2022-10-20T06:58:31;14.43;;;11.35;;
50853;SDS011;44154;45.506;-122.806;2022-10-20T07:00:59;14.32;;;12.00;;
50853;SDS011;44154;45.506;-122.806;2022-10-20T07:03:27;14.65;;;11.25;;
50853;SDS011;44154;45.506;-122.806;2022-10-20T07:05:54;15.20;;;12.07;;
50853;SDS011;44154;45.506;-122.806;2022-10-20T07:08:21;15.60;;;12.57;;
50853;SDS011;44154;45.506;-122.806;2022-10-20T07:10:56;15.35;;;12.07;;
50853;SDS011;44154;45.506;-122.806;2022-10-20T07:13:23;14.52;;;11.73;;
50853;SDS011;44154;45.506;-122.806;2022-10-20T07:15:51;15.80;;;12.38;;
50853;SDS011;44154;45.506;-122.806;2022-10-20T07:18:19;15.15;;;12.32;;
50853;SDS011;44154;45.506;-122.806;2022-10-20T07:20:45;15.45;;;12.15;;
50853;SDS011;44154;45.506;-122.806;2022-10-20T07:28:10;13.98;;;11.50;;
50853;SDS011;44154;45.506;-122.806;2022-10-20T07:30:40;12.95;;;10.90;;
50853;SDS011;44154;45.506;-122.806;2022-10-20T07:33:06;14.07;;;11.65;;
50853;SDS011;44154;45.506;-122.806;2022-10-20T07:35:34;15.60;;;12.10;;
50853;SDS011;44154;45.506;-122.806;2022-10-20T07:38:00;14.77;;;11.98;;
50853;SDS011;44154;45.506;-122.806;2022-10-20T07:40:27;14.73;;;11.80;;
50853;SDS011;44154;45.506;-122.806;2022-10-20T07:42:55;14.98;;;12.23;;
50853;SDS011;44154;45.506;-122.806;2022-10-20T07:45:21;15.27;;;12.38;;
50853;SDS011;44154;45.506;-122.806;2022-10-20T07:47:47;15.98;;;12.60;;
50853;SDS011;44154;45.506;-122.806;2022-10-20T07:50:13;14.68;;;11.82;;
50853;SDS011;44154;45.506;-122.806;2022-10-20T07:52:40;15.68;;;11.60;;
50853;SDS011;44154;45.506;-122.806;2022-10-20T07:55:06;15.15;;;12.10;;
50853;SDS011;44154;45.506;-122.806;2022-10-20T07:57:32;16.00;;;12.13;;
50853;SDS011;44154;45.506;-122.806;2022-10-20T07:59:58;14.77;;;12.38;;
50853;SDS011;44154;45.506;-122.806;2022-10-20T08:02:25;15.27;;;12.10;;
50853;SDS011;44154;45.506;-122.806;2022-10-20T08:04:51;14.70;;;11.68;;
50853;SDS011;44154;45.506;-122.806;2022-10-20T08:07:17;16.33;;;13.02;;
50853;SDS011;44154;45.506;-122.806;2022-10-20T08:09:43;15.52;;;12.32;;
50853;SDS011;44154;45.506;-122.806;2022-10-20T08:12:11;15.13;;;12.77;;
50853;SDS011;44154;45.506;-122.806;2022-10-20T08:14:37;15.43;;;12.50;;
50853;SDS011;44154;45.506;-122.806;2022-10-20T08:17:03;15.05;;;12.13;;
50853;SDS011;44154;45.506;-122.806;2022-10-20T08:19:29;14.98;;;11.95;;
50853;SDS011;44154;45.506;-122.806;2022-10-20T08:21:55;14.48;;;11.65;;
50853;SDS011;44154;45.506;-122.806;2022-10-20T08:24:22;14.88;;;12.05;;
50853;SDS011;44154;45.506;-122.806;2022-10-20T08:26:48;16.48;;;12.85;;
50853;SDS011;44154;45.506;-122.806;2022-10-20T08:29:14;21.58;;;17.05;;
50853;SDS011;44154;45.506;-122.806;2022-10-20T08:31:42;22.95;;;17.65;;
50853;SDS011;44154;45.506;-122.806;2022-10-20T08:34:08;25.25;;;19.60;;
50853;SDS011;44154;45.506;-122.806;2022-10-20T08:36:35;26.90;;;21.58;;
50853;SDS011;44154;45.506;-122.806;2022-10-20T08:39:04;30.17;;;23.40;;
50853;SDS011;44154;45.506;-122.806;2022-10-20T08:41:31;24.40;;;19.05;;
50853;SDS011;44154;45.506;-122.806;2022-10-20T08:44:02;22.85;;;17.60;;
50853;SDS011;44154;45.506;-122.806;2022-10-20T08:46:34;22.35;;;17.02;;
50853;SDS011;44154;45.506;-122.806;2022-10-20T08:49:03;19.37;;;15.20;;
50853;SDS011;44154;45.506;-122.806;2022-10-20T08:51:33;19.98;;;15.75;;
50853;SDS011;44154;45.506;-122.806;2022-10-20T08:54:03;19.00;;;14.85;;
50853;SDS011;44154;45.506;-122.806;2022-10-20T08:56:35;18.40;;;13.85;;
50853;SDS011;44154;45.506;-122.806;2022-10-20T08:59:02;17.02;;;13.70;;
50853;SDS011;44154;45.506;-122.806;2022-10-20T09:01:38;18.17;;;13.63;;
50853;SDS011;44154;45.506;-122.806;2022-10-20T09:06:56;17.35;;;12.77;;
50853;SDS011;44154;45.506;-122.806;2022-10-20T09:09:28;15.27;;;12.02;;
50853;SDS011;44154;45.506;-122.806;2022-10-20T09:11:58;15.80;;;12.40;;
50853;SDS011;44154;45.506;-122.806;2022-10-20T09:14:32;16.50;;;12.43;;
50853;SDS011;44154;45.506;-122.806;2022-10-20T09:17:01;16.85;;;12.57;;
50853;SDS011;44154;45.506;-122.806;2022-10-20T09:19:28;16.85;;;12.15;;
50853;SDS011;44154;45.506;-122.806;2022-10-20T09:21:55;15.18;;;11.50;;
50853;SDS011;44154;45.506;-122.806;2022-10-20T09:24:24;14.48;;;11.52;;
50853;SDS011;44154;45.506;-122.806;2022-10-20T09:26:54;16.48;;;12.48;;
50853;SDS011;44154;45.506;-122.806;2022-10-20T09:29:21;14.95;;;12.07;;
50853;SDS011;44154;45.506;-122.806;2022-10-20T09:31:58;13.77;;;10.95;;
50853;SDS011;44154;45.506;-122.806;2022-10-20T09:34:28;13.85;;;10.63;;
50853;SDS011;44154;45.506;-122.806;2022-10-20T09:37:01;14.57;;;10.88;;
50853;SDS011;44154;45.506;-122.806;2022-10-20T09:39:41;15.15;;;11.73;;
50853;SDS011;44154;45.506;-122.806;2022-10-20T09:42:18;15.35;;;11.90;;
50853;SDS011;44154;45.506;-122.806;2022-10-20T09:45:06;14.75;;;11.07;;
50853;SDS011;44154;45.506;-122.806;2022-10-20T09:47:47;14.68;;;11.45;;
50853;SDS011;44154;45.506;-122.806;2022-10-20T09:50:17;14.77;;;11.02;;
50853;SDS011;44154;45.506;-122.806;2022-10-20T09:52:47;14.07;;;10.50;;
50853;SDS011;44154;45.506;-122.806;2022-10-20T09:57:46;14.20;;;10.90;;
50853;SDS011;44154;45.506;-122.806;2022-10-20T10:00:30;13.13;;;10.80;;
50853;SDS011;44154;45.506;-122.806;2022-10-20T10:03:14;15.38;;;11.80;;
50853;SDS011;44154;45.506;-122.806;2022-10-20T10:05:47;14.57;;;11.20;;
50853;SDS011;44154;45.506;-122.806;2022-10-20T10:08:14;14.43;;;11.40;;
50853;SDS011;44154;45.506;-122.806;2022-10-20T10:10:41;14.85;;;11.18;;
50853;SDS011;44154;45.506;-122.806;2022-10-20T10:13:24;15.85;;;11.45;;
50853;SDS011;44154;45.506;-122.806;2022-10-20T10:16:03;14.65;;;10.75;;
50853;SDS011;44154;45.506;-122.806;2022-10-20T10:18:31;14.55;;;10.88;;
50853;SDS011;44154;45.506;-122.806;2022-10-20T10:21:02;14.80;;;11.25;;
50853;SDS011;44154;45.506;-122.806;2022-10-20T10:23:50;14.60;;;11.65;;
50853;SDS011;44154;45.506;-122.806;2022-10-20T10:29:13;15.13;;;11.38;;
50853;SDS011;44154;45.506;-122.806;2022-10-20T10:31:45;13.95;;;11.18;;
50853;SDS011;44154;45.506;-122.806;2022-10-20T10:36:43;15.05;;;11.05;;
50853;SDS011;44154;45.506;-122.806;2022-10-20T10:39:10;15.05;;;12.13;;
50853;SDS011;44154;45.506;-122.806;2022-10-20T10:47:39;13.88;;;10.75;;
50853;SDS011;44154;45.506;-122.806;2022-10-20T10:58:56;14.25;;;10.45;;
50853;SDS011;44154;45.506;-122.806;2022-10-20T11:01:44;14.80;;;11.00;;
50853;SDS011;44154;45.506;-122.806;2022-10-20T11:06:59;14.18;;;10.45;;
50853;SDS011;44154;45.506;-122.806;2022-10-20T11:14:52;13.48;;;10.35;;
50853;SDS011;44154;45.506;-122.806;2022-10-20T11:28:46;12.43;;;9.90;;
50853;SDS011;44154;45.506;-122.806;2022-10-20T11:33:59;14.43;;;10.98;;
50853;SDS011;44154;45.506;-122.806;2022-10-20T11:36:35;14.45;;;10.93;;
50853;SDS011;44154;45.506;-122.806;2022-10-20T11:39:10;14.60;;;10.55;;
50853;SDS011;44154;45.506;-122.806;2022-10-20T11:42:13;14.07;;;10.63;;
50853;SDS011;44154;45.506;-122.806;2022-10-20T11:45:04;14.80;;;11.15;;
50853;SDS011;44154;45.506;-122.806;2022-10-20T11:47:48;13.63;;;10.43;;
50853;SDS011;44154;45.506;-122.806;2022-10-20T11:50:19;12.77;;;10.32;;
50853;SDS011;44154;45.506;-122.806;2022-10-20T12:00:56;13.63;;;10.60;;
50853;SDS011;44154;45.506;-122.806;2022-10-20T12:14:25;12.63;;;10.13;;
50853;SDS011;44154;45.506;-122.806;2022-10-20T12:19:44;13.63;;;10.68;;
50853;SDS011;44154;45.506;-122.806;2022-10-20T12:24:43;14.10;;;10.75;;
50853;SDS011;44154;45.506;-122.806;2022-10-20T12:27:27;13.25;;;9.73;;
50853;SDS011;44154;45.506;-122.806;2022-10-20T12:30:56;11.95;;;9.05;;
50853;SDS011;44154;45.506;-122.806;2022-10-20T12:33:14;11.18;;;9.05;;
50853;SDS011;44154;45.506;-122.806;2022-10-20T12:38:42;13.38;;;9.13;;
50853;SDS011;44154;45.506;-122.806;2022-10-20T12:41:11;10.60;;;8.38;;
50853;SDS011;44154;45.506;-122.806;2022-10-20T12:43:57;10.90;;;8.18;;
50853;SDS011;44154;45.506;-122.806;2022-10-20T12:46:29;10.80;;;8.38;;
50853;SDS011;44154;45.506;-122.806;2022-10-20T12:48:57;10.75;;;8.50;;
50853;SDS011;44154;45.506;-122.806;2022-10-20T12:54:34;10.27;;;7.75;;
50853;SDS011;44154;45.506;-122.806;2022-10-20T12:57:26;12.15;;;8.75;;
50853;SDS011;44154;45.506;-122.806;2022-10-20T13:00:06;11.38;;;8.27;;
50853;SDS011;44154;45.506;-122.806;2022-10-20T13:02:57;12.70;;;9.20;;
50853;SDS011;44154;45.506;-122.806;2022-10-20T13:10:46;11.85;;;9.02;;
50853;SDS011;44154;45.506;-122.806;2022-10-20T13:15:46;12.63;;;9.93;;
50853;SDS011;44154;45.506;-122.806;2022-10-20T13:23:17;12.68;;;9.45;;
50853;SDS011;44154;45.506;-122.806;2022-10-20T13:25:57;10.35;;;8.38;;
50853;SDS011;44154;45.506;-122.806;2022-10-20T13:28:27;11.40;;;8.80;;
50853;SDS011;44154;45.506;-122.806;2022-10-20T13:33:45;12.25;;;8.43;;
50853;SDS011;44154;45.506;-122.806;2022-10-20T13:50:11;11.68;;;8.35;;
50853;SDS011;44154;45.506;-122.806;2022-10-20T13:52:42;11.50;;;8.52;;
50853;SDS011;44154;45.506;-122.806;2022-10-20T13:55:21;11.75;;;9.20;;
50853;SDS011;44154;45.506;-122.806;2022-10-20T13:57:57;11.85;;;9.52;;
50853;SDS011;44154;45.506;-122.806;2022-10-20T14:00:30;12.88;;;9.25;;
50853;SDS011;44154;45.506;-122.806;2022-10-20T14:02:59;13.27;;;10.50;;
50853;SDS011;44154;45.506;-122.806;2022-10-20T14:05:28;12.40;;;9.57;;
50853;SDS011;44154;45.506;-122.806;2022-10-20T14:08:01;18.15;;;10.48;;
50853;SDS011;44154;45.506;-122.806;2022-10-20T14:13:12;13.48;;;10.50;;
50853;SDS011;44154;45.506;-122.806;2022-10-20T14:15:43;12.95;;;9.90;;
50853;SDS011;44154;45.506;-122.806;2022-10-20T14:18:27;13.40;;;9.65;;
50853;SDS011;44154;45.506;-122.806;2022-10-20T14:21:00;12.27;;;9.07;;
50853;SDS011;44154;45.506;-122.806;2022-10-20T14:23:38;11.93;;;8.68;;
50853;SDS011;44154;45.506;-122.806;2022-10-20T14:26:10;11.80;;;8.65;;
50853;SDS011;44154;45.506;-122.806;2022-10-20T14:28:39;12.50;;;8.40;;
50853;SDS011;44154;45.506;-122.806;2022-10-20T14:31:09;10.98;;;8.85;;
50853;SDS011;44154;45.506;-122.806;2022-10-20T14:33:45;11.30;;;8.73;;
50853;SDS011;44154;45.506;-122.806;2022-10-20T14:36:24;11.02;;;8.50;;
50853;SDS011;44154;45.506;-122.806;2022-10-20T14:38:55;12.05;;;9.70;;
50853;SDS011;44154;45.506;-122.806;2022-10-20T14:41:29;11.65;;;8.90;;
50853;SDS011;44154;45.506;-122.806;2022-10-20T14:44:00;11.73;;;8.90;;
50853;SDS011;44154;45.506;-122.806;2022-10-20T14:49:14;11.25;;;9.45;;
50853;SDS011;44154;45.506;-122.806;2022-10-20T14:51:42;11.55;;;8.73;;
50853;SDS011;44154;45.506;-122.806;2022-10-20T14:59:36;11.50;;;8.93;;
50853;SDS011;44154;45.506;-122.806;2022-10-20T15:02:16;13.30;;;11.07;;
50853;SDS011;44154;45.506;-122.806;2022-10-20T15:04:46;13.95;;;10.10;;
50853;SDS011;44154;45.506;-122.806;2022-10-20T15:09:59;12.88;;;9.75;;
50853;SDS011;44154;45.506;-122.806;2022-10-20T15:12:46;11.57;;;8.93;;
50853;SDS011;44154;45.506;-122.806;2022-10-20T15:18:31;11.15;;;8.13;;
50853;SDS011;44154;45.506;-122.806;2022-10-20T15:20:35;11.38;;;9.00;;
50853;SDS011;44154;45.506;-122.806;2022-10-20T15:23:11;10.13;;;8.15;;
50853;SDS011;44154;45.506;-122.806;2022-10-20T15:28:29;11.18;;;8.40;;
50853;SDS011;44154;45.506;-122.806;2022-10-20T15:31:02;10.95;;;8.38;;
50853;SDS011;44154;45.506;-122.806;2022-10-20T15:33:49;10.45;;;7.82;;
50853;SDS011;44154;45.506;-122.806;2022-10-20T15:36:17;12.38;;;8.55;;
50853;SDS011;44154;45.506;-122.806;2022-10-20T15:38:48;10.75;;;8.63;;
50853;SDS011;44154;45.506;-122.806;2022-10-20T15:41:15;11.32;;;8.18;;
50853;SDS011;44154;45.506;-122.806;2022-10-20T15:43:43;11.50;;;8.05;;
50853;SDS011;44154;45.506;-122.806;2022-10-20T15:46:10;10.80;;;8.43;;
50853;SDS011;44154;45.506;-122.806;2022-10-20T15:48:37;10.82;;;7.82;;
50853;SDS011;44154;45.506;-122.806;2022-10-20T15:51:05;10.60;;;7.78;;
50853;SDS011;44154;45.506;-122.806;2022-10-20T15:53:41;10.40;;;8.30;;
50853;SDS011;44154;45.506;-122.806;2022-10-20T15:56:10;10.43;;;8.40;;
50853;SDS011;44154;45.506;-122.806;2022-10-20T15:58:36;10.57;;;8.00;;
50853;SDS011;44154;45.506;-122.806;2022-10-20T16:01:02;10.65;;;8.20;;
50853;SDS011;44154;45.506;-122.806;2022-10-20T16:03:28;11.75;;;8.63;;
50853;SDS011;44154;45.506;-122.806;2022-10-20T16:05:54;12.93;;;7.95;;
50853;SDS011;44154;45.506;-122.806;2022-10-20T16:08:21;11.13;;;8.02;;
50853;SDS011;44154;45.506;-122.806;2022-10-20T16:10:47;11.68;;;8.35;;
50853;SDS011;44154;45.506;-122.806;2022-10-20T16:13:13;10.70;;;7.88;;
50853;SDS011;44154;45.506;-122.806;2022-10-20T16:15:42;12.40;;;8.88;;
50853;SDS011;44154;45.506;-122.806;2022-10-20T16:18:09;10.82;;;7.68;;
50853;SDS011;44154;45.506;-122.806;2022-10-20T16:20:35;9.57;;;7.60;;
50853;SDS011;44154;45.506;-122.806;2022-10-20T16:23:01;11.25;;;7.70;;
50853;SDS011;44154;45.506;-122.806;2022-10-20T16:25:27;11.55;;;7.82;;
50853;SDS011;44154;45.506;-122.806;2022-10-20T16:27:53;10.95;;;8.18;;
50853;SDS011;44154;45.506;-122.806;2022-10-20T16:30:19;11.63;;;7.45;;
50853;SDS011;44154;45.506;-122.806;2022-10-20T16:32:45;10.63;;;7.70;;
50853;SDS011;44154;45.506;-122.806;2022-10-20T16:35:12;10.60;;;7.65;;
50853;SDS011;44154;45.506;-122.806;2022-10-20T16:37:38;11.30;;;8.15;;
50853;SDS011;44154;45.506;-122.806;2022-10-20T16:40:04;12.13;;;9.27;;
50853;SDS011;44154;45.506;-122.806;2022-10-20T16:42:30;10.30;;;8.05;;
50853;SDS011;44154;45.506;-122.806;2022-10-20T16:44:57;11.73;;;9.00;;
50853;SDS011;44154;45.506;-122.806;2022-10-20T16:47:24;11.55;;;8.55;;
50853;SDS011;44154;45.506;-122.806;2022-10-20T16:49:50;12.70;;;9.13;;
50853;SDS011;44154;45.506;-122.806;2022-10-20T16:52:17;11.40;;;8.70;;
50853;SDS011;44154;45.506;-122.806;2022-10-20T16:54:43;11.50;;;8.95;;